sensor_id;sensor_type;location;lat;lon;timestamp;pressure;altitude;pressure_sealevel;temperature;humidity
69624;BME280;56843;52.020;5.670;2023-02-28T00:00:35;102955.75;;;9.75;55.86
69624;BME280;56843;52.020;5.670;2023-02-28T00:02:06;102951.22;;;9.76;55.57
69624;BME280;56843;52.020;5.670;2023-02-28T00:03:36;102942.13;;;9.77;55.80
69624;BME280;56843;52.020;5.670;2023-02-28T00:05:08;102953.88;;;9.76;55.88
69624;BME280;56843;52.020;5.670;2023-02-28T00:06:39;102941.59;;;9.75;55.78
69624;BME280;56843;52.020;5.670;2023-02-28T00:08:10;102945.06;;;9.75;55.88
69624;BME280;56843;52.020;5.670;2023-02-28T00:09:40;102949.59;;;9.75;55.93
69624;BME280;56843;52.020;5.670;2023-02-28T00:11:13;102952.53;;;9.73;55.92
69624;BME280;56843;52.020;5.670;2023-02-28T00:12:43;102953.34;;;9.74;56.14
69624;BME280;56843;52.020;5.670;2023-02-28T00:14:14;102950.69;;;9.74;56.05
69624;BME280;56843;52.020;5.670;2023-02-28T00:15:44;102942.91;;;9.72;56.13
69624;BME280;56843;52.020;5.670;2023-02-28T00:17:16;102949.59;;;9.75;55.93
69624;BME280;56843;52.020;5.670;2023-02-28T00:18:48;102948.00;;;9.74;56.08
69624;BME280;56843;52.020;5.670;2023-02-28T00:20:19;102946.41;;;9.73;56.15
69624;BME280;56843;52.020;5.670;2023-02-28T00:21:50;102953.06;;;9.75;56.14
69624;BME280;56843;52.020;5.670;2023-02-28T00:23:21;102952.25;;;9.75;55.99
69624;BME280;56843;52.020;5.670;2023-02-28T00:24:51;102945.34;;;9.74;55.73
69624;BME280;56843;52.020;5.670;2023-02-28T00:26:22;102946.94;;;9.75;56.15
69624;BME280;56843;52.020;5.670;2023-02-28T00:27:53;102942.69;;;9.74;56.31
69624;BME280;56843;52.020;5.670;2023-02-28T00:29:23;102938.13;;;9.74;56.18
69624;BME280;56843;52.020;5.670;2023-02-28T00:30:54;102936.81;;;9.72;56.24
69624;BME280;56843;52.020;5.670;2023-02-28T00:32:25;102935.44;;;9.74;56.15
69624;BME280;56843;52.020;5.670;2023-02-28T00:33:55;102933.59;;;9.75;56.08
69624;BME280;56843;52.020;5.670;2023-02-28T00:35:26;102936.25;;;9.75;56.34
69624;BME280;56843;52.020;5.670;2023-02-28T00:36:56;102930.13;;;9.74;56.17
69624;BME280;56843;52.020;5.670;2023-02-28T00:38:27;102926.38;;;9.70;56.05
69624;BME280;56843;52.020;5.670;2023-02-28T00:39:57;102937.34;;;9.74;56.33
69624;BME280;56843;52.020;5.670;2023-02-28T00:41:28;102940.78;;;9.74;56.29
69624;BME280;56843;52.020;5.670;2023-02-28T00:42:58;102937.34;;;9.74;56.10
69624;BME280;56843;52.020;5.670;2023-02-28T00:44:30;102931.72;;;9.70;56.32
69624;BME280;56843;52.020;5.670;2023-02-28T00:46:01;102942.69;;;9.74;56.17
69624;BME280;56843;52.020;5.670;2023-02-28T00:47:32;102940.00;;;9.74;56.17
69624;BME280;56843;52.020;5.670;2023-02-28T00:49:02;102938.94;;;9.75;56.13
69624;BME280;56843;52.020;5.670;2023-02-28T00:50:33;102938.94;;;9.75;56.45
69624;BME280;56843;52.020;5.670;2023-02-28T00:52:03;102942.69;;;9.74;56.23
69624;BME280;56843;52.020;5.670;2023-02-28T00:53:34;102942.69;;;9.74;56.32
69624;BME280;56843;52.020;5.670;2023-02-28T00:55:05;102940.78;;;9.74;56.33
69624;BME280;56843;52.020;5.670;2023-02-28T00:56:35;102940.53;;;9.76;56.35
69624;BME280;56843;52.020;5.670;2023-02-28T00:58:06;102937.06;;;9.75;56.24
69624;BME280;56843;52.020;5.670;2023-02-28T00:59:36;102946.13;;;9.74;56.31
69624;BME280;56843;52.020;5.670;2023-02-28T01:01:07;102944.00;;;9.76;56.29
69624;BME280;56843;52.020;5.670;2023-02-28T01:02:37;102940.78;;;9.74;56.37
69624;BME280;56843;52.020;5.670;2023-02-28T01:04:08;102941.59;;;9.75;56.26
69624;BME280;56843;52.020;5.670;2023-02-28T01:05:39;102944.25;;;9.75;56.27
69624;BME280;56843;52.020;5.670;2023-02-28T01:07:11;102948.78;;;9.74;56.37
69624;BME280;56843;52.020;5.670;2023-02-28T01:08:42;102950.13;;;9.77;56.32
69624;BME280;56843;52.020;5.670;2023-02-28T01:10:12;102943.72;;;9.73;56.28
69624;BME280;56843;52.020;5.670;2023-02-28T01:11:43;102950.13;;;9.77;56.32
69624;BME280;56843;52.020;5.670;2023-02-28T01:13:14;102952.81;;;9.77;56.43
69624;BME280;56843;52.020;5.670;2023-02-28T01:14:45;102949.09;;;9.78;56.37
69624;BME280;56843;52.020;5.670;2023-02-28T01:16:16;102948.00;;;9.79;56.50
69624;BME280;56843;52.020;5.670;2023-02-28T01:17:46;102941.06;;;9.78;56.12
69624;BME280;56843;52.020;5.670;2023-02-28T01:19:17;102945.34;;;9.79;56.46
69624;BME280;56843;52.020;5.670;2023-02-28T01:20:48;102945.34;;;9.79;56.22
69624;BME280;56843;52.020;5.670;2023-02-28T01:22:20;102952.56;;;9.78;56.47
69624;BME280;56843;52.020;5.670;2023-02-28T01:23:51;102948.81;;;9.79;56.39
69624;BME280;56843;52.020;5.670;2023-02-28T01:25:21;102944.28;;;9.80;56.47
69624;BME280;56843;52.020;5.670;2023-02-28T01:26:52;102932.78;;;9.79;56.38
69624;BME280;56843;52.020;5.670;2023-02-28T01:28:23;102935.47;;;9.79;56.25
69624;BME280;56843;52.020;5.670;2023-02-28T01:29:54;102932.00;;;9.79;56.29
69624;BME280;56843;52.020;5.670;2023-02-28T01:31:25;102931.75;;;9.80;56.34
69624;BME280;56843;52.020;5.670;2023-02-28T01:32:55;102939.75;;;9.80;56.34
69624;BME280;56843;52.020;5.670;2023-02-28T01:34:26;102928.28;;;9.80;56.47
69624;BME280;56843;52.020;5.670;2023-02-28T01:36:04;102938.13;;;9.79;56.42
69624;BME280;56843;52.020;5.670;2023-02-28T01:37:35;102933.06;;;9.78;56.41
69624;BME280;56843;52.020;5.670;2023-02-28T01:39:05;102938.13;;;9.79;56.47
69624;BME280;56843;52.020;5.670;2023-02-28T01:40:36;102937.84;;;9.81;56.45
69624;BME280;56843;52.020;5.670;2023-02-28T01:42:09;102934.66;;;9.84;56.61
69624;BME280;56843;52.020;5.670;2023-02-28T01:46:51;102936.81;;;9.87;56.39
69624;BME280;56843;52.020;5.670;2023-02-28T01:48:26;102940.28;;;9.87;56.37
69624;BME280;56843;52.020;5.670;2023-02-28T01:49:58;102934.94;;;9.87;56.53
69624;BME280;56843;52.020;5.670;2023-02-28T01:51:41;102930.16;;;9.89;56.42
69624;BME280;56843;52.020;5.670;2023-02-28T01:53:25;102930.41;;;9.88;56.31
69624;BME280;56843;52.020;5.670;2023-02-28T01:55:02;102922.94;;;9.90;56.41
69624;BME280;56843;52.020;5.670;2023-02-28T01:56:36;102925.34;;;9.91;56.36
69624;BME280;56843;52.020;5.670;2023-02-28T01:58:08;102925.88;;;9.93;56.22
69624;BME280;56843;52.020;5.670;2023-02-28T01:59:43;102917.59;;;9.95;56.47
69624;BME280;56843;52.020;5.670;2023-02-28T02:03:15;102916.25;;;9.92;56.44
69624;BME280;56843;52.020;5.670;2023-02-28T02:05:05;102922.41;;;9.98;56.24
69624;BME280;56843;52.020;5.670;2023-02-28T02:06:40;102914.66;;;9.96;56.22
69624;BME280;56843;52.020;5.670;2023-02-28T02:08:19;102924.00;;;9.99;56.20
69624;BME280;56843;52.020;5.670;2023-02-28T02:10:04;102908.78;;;9.99;56.21
69624;BME280;56843;52.020;5.670;2023-02-28T02:11:36;102909.84;;;9.98;56.34
69624;BME280;56843;52.020;5.670;2023-02-28T02:13:13;102914.94;;;10.00;56.17
69624;BME280;56843;52.020;5.670;2023-02-28T02:15:02;102907.97;;;9.99;56.19
69624;BME280;56843;52.020;5.670;2023-02-28T02:20:22;102910.66;;;9.99;56.20
69624;BME280;56843;52.020;5.670;2023-02-28T02:22:44;102906.94;;;10.00;56.19
69624;BME280;56843;52.020;5.670;2023-02-28T02:28:32;102914.66;;;9.96;56.25
69624;BME280;56843;52.020;5.670;2023-02-28T02:37:53;102913.31;;;9.99;56.13
69624;BME280;56843;52.020;5.670;2023-02-28T02:39:45;102923.19;;;9.98;56.38
69624;BME280;56843;52.020;5.670;2023-02-28T02:41:31;102917.59;;;9.95;56.11
69624;BME280;56843;52.020;5.670;2023-02-28T02:43:16;102921.59;;;9.97;56.18
69624;BME280;56843;52.020;5.670;2023-02-28T02:45:13;102917.84;;;9.98;56.15
69624;BME280;56843;52.020;5.670;2023-02-28T02:46:48;102916.78;;;9.94;56.09
69624;BME280;56843;52.020;5.670;2023-02-28T02:48:25;102932.03;;;9.94;56.30
69624;BME280;56843;52.020;5.670;2023-02-28T02:49:59;102925.06;;;9.93;56.14
69624;BME280;56843;52.020;5.670;2023-02-28T02:51:35;102929.59;;;9.92;56.24
69624;BME280;56843;52.020;5.670;2023-02-28T02:53:09;102926.69;;;9.94;55.96
69624;BME280;56843;52.020;5.670;2023-02-28T02:54:45;102932.03;;;9.94;56.06
69624;BME280;56843;52.020;5.670;2023-02-28T02:56:23;102925.88;;;9.93;56.23
69624;BME280;56843;52.020;5.670;2023-02-28T02:58:00;102923.72;;;9.90;56.07
69624;BME280;56843;52.020;5.670;2023-02-28T02:59:35;102926.13;;;9.92;56.21
69624;BME280;56843;52.020;5.670;2023-02-28T03:01:06;102926.41;;;9.90;56.32
69624;BME280;56843;52.020;5.670;2023-02-28T03:02:40;102926.69;;;9.89;56.16
69624;BME280;56843;52.020;5.670;2023-02-28T03:04:15;102925.88;;;9.88;56.35
69624;BME280;56843;52.020;5.670;2023-02-28T03:05:50;102927.47;;;9.89;56.40
69624;BME280;56843;52.020;5.670;2023-02-28T03:07:20;102933.06;;;9.88;56.32
69624;BME280;56843;52.020;5.670;2023-02-28T03:08:52;102929.34;;;9.89;56.31
69624;BME280;56843;52.020;5.670;2023-02-28T03:10:50;102938.69;;;9.91;56.22
69624;BME280;56843;52.020;5.670;2023-02-28T03:12:23;102941.34;;;9.86;56.38
69624;BME280;56843;52.020;5.670;2023-02-28T03:17:58;102933.63;;;9.85;56.28
69624;BME280;56843;52.020;5.670;2023-02-28T03:19:48;102933.59;;;9.80;56.28
69624;BME280;56843;52.020;5.670;2023-02-28T03:21:28;102937.84;;;9.81;56.28
69624;BME280;56843;52.020;5.670;2023-02-28T03:23:08;102941.63;;;9.80;56.24
69624;BME280;56843;52.020;5.670;2023-02-28T03:26:20;102937.09;;;9.80;56.43
69624;BME280;56843;52.020;5.670;2023-02-28T03:29:42;102940.53;;;9.81;56.53
69624;BME280;56843;52.020;5.670;2023-02-28T03:31:20;102945.34;;;9.79;56.35
69624;BME280;56843;52.020;5.670;2023-02-28T03:33:24;102949.63;;;9.80;56.44
69624;BME280;56843;52.020;5.670;2023-02-28T03:35:02;102950.13;;;9.77;56.62
69624;BME280;56843;52.020;5.670;2023-02-28T03:36:42;102935.97;;;9.76;56.51
69624;BME280;56843;52.020;5.670;2023-02-28T03:38:22;102942.13;;;9.77;56.59
69624;BME280;56843;52.020;5.670;2023-02-28T03:40:21;102944.56;;;9.78;56.67
69624;BME280;56843;52.020;5.670;2023-02-28T03:41:59;102945.06;;;9.75;56.69
69624;BME280;56843;52.020;5.670;2023-02-28T03:43:36;102936.53;;;9.73;56.61
69624;BME280;56843;52.020;5.670;2023-02-28T03:45:11;102944.25;;;9.75;56.73
69624;BME280;56843;52.020;5.670;2023-02-28T03:46:52;102948.28;;;9.77;56.65
69624;BME280;56843;52.020;5.670;2023-02-28T03:48:39;102951.72;;;9.73;56.71
69624;BME280;56843;52.020;5.670;2023-02-28T03:50:24;102945.34;;;9.74;56.67
69624;BME280;56843;52.020;5.670;2023-02-28T03:51:58;102953.59;;;9.72;56.66
69624;BME280;56843;52.020;5.670;2023-02-28T03:53:34;102951.47;;;9.74;56.63
69624;BME280;56843;52.020;5.670;2023-02-28T03:55:09;102954.13;;;9.74;56.55
69624;BME280;56843;52.020;5.670;2023-02-28T03:56:48;102947.75;;;9.75;56.63
69624;BME280;56843;52.020;5.670;2023-02-28T03:58:37;102948.78;;;9.74;56.46
69624;BME280;56843;52.020;5.670;2023-02-28T04:00:13;102956.25;;;9.72;56.54
69624;BME280;56843;52.020;5.670;2023-02-28T04:01:48;102940.25;;;9.72;56.54
69624;BME280;56843;52.020;5.670;2023-02-28T04:03:19;102952.53;;;9.73;56.69
69624;BME280;56843;52.020;5.670;2023-02-28T04:04:49;102950.16;;;9.72;56.56
69624;BME280;56843;52.020;5.670;2023-02-28T04:06:23;102945.59;;;9.72;56.56
69624;BME280;56843;52.020;5.670;2023-02-28T04:07:53;102949.88;;;9.73;56.46
69624;BME280;56843;52.020;5.670;2023-02-28T04:09:24;102954.41;;;9.73;56.75
69624;BME280;56843;52.020;5.670;2023-02-28T04:11:05;102942.38;;;9.70;56.59
69624;BME280;56843;52.020;5.670;2023-02-28T04:12:37;102949.59;;;9.70;56.50
69624;BME280;56843;52.020;5.670;2023-02-28T04:14:09;102940.53;;;9.71;56.58
69624;BME280;56843;52.020;5.670;2023-02-28T04:15:39;102944.25;;;9.70;56.53
69624;BME280;56843;52.020;5.670;2023-02-28T04:17:10;102942.16;;;9.72;56.49
69624;BME280;56843;52.020;5.670;2023-02-28T04:18:42;102946.91;;;9.70;56.63
69624;BME280;56843;52.020;5.670;2023-02-28T04:20:15;102953.88;;;9.71;56.68
69624;BME280;56843;52.020;5.670;2023-02-28T04:21:53;102946.66;;;9.71;56.49
69624;BME280;56843;52.020;5.670;2023-02-28T04:23:23;102952.53;;;9.68;55.90
69624;BME280;56843;52.020;5.670;2023-02-28T04:24:54;102952.25;;;9.70;56.50
69624;BME280;56843;52.020;5.670;2023-02-28T04:26:25;102949.31;;;9.66;56.57
69624;BME280;56843;52.020;5.670;2023-02-28T04:27:55;102956.81;;;9.69;56.56
69624;BME280;56843;52.020;5.670;2023-02-28T04:29:28;102949.84;;;9.68;56.55
69624;BME280;56843;52.020;5.670;2023-02-28T04:31:01;102951.72;;;9.68;56.53
69624;BME280;56843;52.020;5.670;2023-02-28T04:32:32;102951.72;;;9.68;56.70
69624;BME280;56843;52.020;5.670;2023-02-28T04:34:03;102950.13;;;9.67;56.61
69624;BME280;56843;52.020;5.670;2023-02-28T04:35:34;102960.81;;;9.67;57.01
69624;BME280;56843;52.020;5.670;2023-02-28T04:37:05;102953.06;;;9.65;56.54
69624;BME280;56843;52.020;5.670;2023-02-28T04:38:37;102953.84;;;9.66;56.65
69624;BME280;56843;52.020;5.670;2023-02-28T04:40:08;102956.78;;;9.64;56.90
69624;BME280;56843;52.020;5.670;2023-02-28T04:41:39;102949.06;;;9.63;56.34
69624;BME280;56843;52.020;5.670;2023-02-28T04:43:09;102949.06;;;9.63;56.94
69624;BME280;56843;52.020;5.670;2023-02-28T04:44:40;102946.94;;;9.65;56.66
69624;BME280;56843;52.020;5.670;2023-02-28T04:46:10;102949.59;;;9.65;56.96
69624;BME280;56843;52.020;5.670;2023-02-28T04:47:41;102943.72;;;9.63;57.05
69624;BME280;56843;52.020;5.670;2023-02-28T04:49:12;102937.31;;;9.63;56.64
69624;BME280;56843;52.020;5.670;2023-02-28T04:50:43;102940.78;;;9.64;56.97
69624;BME280;56843;52.020;5.670;2023-02-28T04:52:14;102942.63;;;9.63;56.96
69624;BME280;56843;52.020;5.670;2023-02-28T04:53:44;102945.31;;;9.63;56.84
69624;BME280;56843;52.020;5.670;2023-02-28T04:55:15;102934.38;;;9.60;56.93
69624;BME280;56843;52.020;5.670;2023-02-28T04:56:45;102934.38;;;9.60;56.93
69624;BME280;56843;52.020;5.670;2023-02-28T04:58:16;102939.97;;;9.58;57.08
69624;BME280;56843;52.020;5.670;2023-02-28T04:59:47;102947.72;;;9.60;56.98
69624;BME280;56843;52.020;5.670;2023-02-28T05:01:24;102944.50;;;9.63;57.25
69624;BME280;56843;52.020;5.670;2023-02-28T05:02:55;102943.97;;;9.61;57.18
69624;BME280;56843;52.020;5.670;2023-02-28T05:04:26;102928.22;;;9.54;56.95
69624;BME280;56843;52.020;5.670;2023-02-28T05:05:56;102942.09;;;9.61;57.12
69624;BME280;56843;52.020;5.670;2023-02-28T05:07:27;102947.44;;;9.61;57.02
69624;BME280;56843;52.020;5.670;2023-02-28T05:08:58;102930.91;;;9.59;57.22
69624;BME280;56843;52.020;5.670;2023-02-28T05:10:29;102929.84;;;9.60;57.30
69624;BME280;56843;52.020;5.670;2023-02-28T05:11:59;102941.56;;;9.59;57.14
69624;BME280;56843;52.020;5.670;2023-02-28T05:13:31;102930.38;;;9.57;56.99
69624;BME280;56843;52.020;5.670;2023-02-28T05:15:03;102941.28;;;9.61;57.14
69624;BME280;56843;52.020;5.670;2023-02-28T05:16:35;102928.22;;;9.59;57.08
69624;BME280;56843;52.020;5.670;2023-02-28T05:18:05;102921.00;;;9.50;57.05
69624;BME280;56843;52.020;5.670;2023-02-28T05:19:36;102919.13;;;9.50;57.17
69624;BME280;56843;52.020;5.670;2023-02-28T05:21:22;102932.50;;;9.60;57.13
69624;BME280;56843;52.020;5.670;2023-02-28T05:22:54;102931.69;;;9.55;57.12
69624;BME280;56843;52.020;5.670;2023-02-28T05:24:25;102938.38;;;9.57;57.20
69624;BME280;56843;52.020;5.670;2023-02-28T05:25:56;102934.63;;;9.58;57.18
69624;BME280;56843;52.020;5.670;2023-02-28T05:27:27;102939.97;;;9.58;57.18
69624;BME280;56843;52.020;5.670;2023-02-28T05:28:58;102940.50;;;9.55;57.12
69624;BME280;56843;52.020;5.670;2023-02-28T05:30:29;102942.63;;;9.58;57.02
69624;BME280;56843;52.020;5.670;2023-02-28T05:32:00;102933.03;;;9.57;57.31
69624;BME280;56843;52.020;5.670;2023-02-28T05:33:30;102929.28;;;9.58;57.02
69624;BME280;56843;52.020;5.670;2023-02-28T05:35:01;102928.50;;;9.58;57.00
69624;BME280;56843;52.020;5.670;2023-02-28T05:36:32;102919.44;;;9.54;57.11
69624;BME280;56843;52.020;5.670;2023-02-28T05:38:03;102931.19;;;9.58;57.10
69624;BME280;56843;52.020;5.670;2023-02-28T05:39:33;102927.44;;;9.54;57.16
69624;BME280;56843;52.020;5.670;2023-02-28T05:41:09;102918.88;;;9.47;57.10
69624;BME280;56843;52.020;5.670;2023-02-28T05:42:39;102926.63;;;9.53;57.21
69624;BME280;56843;52.020;5.670;2023-02-28T05:44:10;102937.84;;;9.55;57.00
69624;BME280;56843;52.020;5.670;2023-02-28T05:45:41;102940.22;;;9.57;57.18
69624;BME280;56843;52.020;5.670;2023-02-28T05:47:11;102942.91;;;9.57;57.38
69624;BME280;56843;52.020;5.670;2023-02-28T05:48:47;102940.50;;;9.55;57.20
69624;BME280;56843;52.020;5.670;2023-02-28T05:50:17;102942.91;;;9.57;57.19
69624;BME280;56843;52.020;5.670;2023-02-28T05:51:48;102945.84;;;9.55;57.49
69624;BME280;56843;52.020;5.670;2023-02-28T05:53:18;102951.16;;;9.55;57.44
69624;BME280;56843;52.020;5.670;2023-02-28T05:54:49;102941.31;;;9.56;57.25
69624;BME280;56843;52.020;5.670;2023-02-28T05:56:19;102940.50;;;9.55;57.24
69624;BME280;56843;52.020;5.670;2023-02-28T05:57:50;102945.84;;;9.55;57.49
69624;BME280;56843;52.020;5.670;2023-02-28T05:59:20;102945.84;;;9.55;57.44
69624;BME280;56843;52.020;5.670;2023-02-28T06:00:51;102932.50;;;9.55;57.35
69624;BME280;56843;52.020;5.670;2023-02-28T06:02:22;102945.03;;;9.55;57.55
69624;BME280;56843;52.020;5.670;2023-02-28T06:03:52;102938.88;;;9.54;57.36
69624;BME280;56843;52.020;5.670;2023-02-28T06:05:23;102933.56;;;9.54;57.50
69624;BME280;56843;52.020;5.670;2023-02-28T06:06:54;102938.34;;;9.52;58.04
69624;BME280;56843;52.020;5.670;2023-02-28T06:08:27;102941.56;;;9.54;57.30
69624;BME280;56843;52.020;5.670;2023-02-28T06:09:58;102948.78;;;9.54;57.44
69624;BME280;56843;52.020;5.670;2023-02-28T06:11:28;102951.44;;;9.54;57.39
69624;BME280;56843;52.020;5.670;2023-02-28T06:13:00;102950.34;;;9.55;57.53
69624;BME280;56843;52.020;5.670;2023-02-28T06:14:33;102942.34;;;9.55;57.63
69624;BME280;56843;52.020;5.670;2023-02-28T06:16:04;102938.88;;;9.54;57.66
69624;BME280;56843;52.020;5.670;2023-02-28T06:17:35;102945.03;;;9.55;57.71
69624;BME280;56843;52.020;5.670;2023-02-28T06:19:05;102951.16;;;9.55;57.57
69624;BME280;56843;52.020;5.670;2023-02-28T06:20:36;102954.09;;;9.54;57.68
69624;BME280;56843;52.020;5.670;2023-02-28T06:22:06;102946.91;;;9.49;57.61
69624;BME280;56843;52.020;5.670;2023-02-28T06:23:37;102962.13;;;9.54;57.70
69624;BME280;56843;52.020;5.670;2023-02-28T06:25:09;102952.22;;;9.54;57.66
69624;BME280;56843;52.020;5.670;2023-02-28T06:26:40;102950.63;;;9.53;57.57
69624;BME280;56843;52.020;5.670;2023-02-28T06:28:10;102953.31;;;9.53;57.67
69624;BME280;56843;52.020;5.670;2023-02-28T06:29:41;102955.69;;;9.55;57.54
69624;BME280;56843;52.020;5.670;2023-02-28T06:31:14;102963.16;;;9.53;57.75
69624;BME280;56843;52.020;5.670;2023-02-28T06:32:44;102969.31;;;9.53;57.74
69624;BME280;56843;52.020;5.670;2023-02-28T06:34:16;102966.38;;;9.55;57.54
69624;BME280;56843;52.020;5.670;2023-02-28T06:35:50;102960.22;;;9.54;57.58
69624;BME280;56843;52.020;5.670;2023-02-28T06:37:20;102961.53;;;9.52;57.72
69624;BME280;56843;52.020;5.670;2023-02-28T06:38:51;102973.56;;;9.54;57.63
69624;BME280;56843;52.020;5.670;2023-02-28T06:40:24;102960.22;;;9.54;58.05
69624;BME280;56843;52.020;5.670;2023-02-28T06:41:55;102972.50;;;9.55;57.72
69624;BME280;56843;52.020;5.670;2023-02-28T06:43:28;102957.31;;;9.56;57.75
69624;BME280;56843;52.020;5.670;2023-02-28T06:44:59;102967.97;;;9.56;57.79
69624;BME280;56843;52.020;5.670;2023-02-28T06:46:29;102971.44;;;9.56;57.80
69624;BME280;56843;52.020;5.670;2023-02-28T06:48:00;102963.69;;;9.55;57.77
69624;BME280;56843;52.020;5.670;2023-02-28T06:49:32;102977.28;;;9.58;57.67
69624;BME280;56843;52.020;5.670;2023-02-28T06:51:09;102972.78;;;9.59;57.63
69624;BME280;56843;52.020;5.670;2023-02-28T06:52:40;102974.63;;;9.58;57.81
69624;BME280;56843;52.020;5.670;2023-02-28T06:54:11;102974.91;;;9.57;57.51
69624;BME280;56843;52.020;5.670;2023-02-28T06:55:41;102979.19;;;9.58;57.64
69624;BME280;56843;52.020;5.670;2023-02-28T06:57:12;102971.97;;;9.58;57.72
69624;BME280;56843;52.020;5.670;2023-02-28T06:58:49;102977.06;;;9.60;57.62
69624;BME280;56843;52.020;5.670;2023-02-28T07:00:20;102979.97;;;9.58;57.60
69624;BME280;56843;52.020;5.670;2023-02-28T07:01:51;102980.78;;;9.59;57.49
69624;BME280;56843;52.020;5.670;2023-02-28T07:03:22;102984.25;;;9.59;57.67
69624;BME280;56843;52.020;5.670;2023-02-28T07:04:53;102973.03;;;9.57;57.53
69624;BME280;56843;52.020;5.670;2023-02-28T07:06:24;102966.38;;;9.60;57.47
69624;BME280;56843;52.020;5.670;2023-02-28T07:07:55;102984.25;;;9.59;57.34
69624;BME280;56843;52.020;5.670;2023-02-28T07:09:26;102985.88;;;9.60;57.28
69624;BME280;56843;52.020;5.670;2023-02-28T07:11:00;102982.41;;;9.60;57.46
69624;BME280;56843;52.020;5.670;2023-02-28T07:12:30;102986.66;;;9.61;57.45
69624;BME280;56843;52.020;5.670;2023-02-28T07:14:01;102990.41;;;9.60;57.33
69624;BME280;56843;52.020;5.670;2023-02-28T07:15:31;102991.97;;;9.61;57.38
69624;BME280;56843;52.020;5.670;2023-02-28T07:17:02;103003.47;;;9.61;57.29
69624;BME280;56843;52.020;5.670;2023-02-28T07:18:32;102999.75;;;9.63;57.24
69624;BME280;56843;52.020;5.670;2023-02-28T07:20:03;103005.09;;;9.63;57.09
69624;BME280;56843;52.020;5.670;2023-02-28T07:21:34;102994.41;;;9.63;57.12
69624;BME280;56843;52.020;5.670;2023-02-28T07:23:05;102998.66;;;9.63;57.20
69624;BME280;56843;52.020;5.670;2023-02-28T07:24:35;102997.84;;;9.63;57.18
69624;BME280;56843;52.020;5.670;2023-02-28T07:26:07;102997.63;;;9.65;57.18
69624;BME280;56843;52.020;5.670;2023-02-28T07:27:38;102990.66;;;9.63;56.87
69624;BME280;56843;52.020;5.670;2023-02-28T07:29:08;102991.22;;;9.60;57.03
69624;BME280;56843;52.020;5.670;2023-02-28T07:30:39;102994.94;;;9.65;56.87
69624;BME280;56843;52.020;5.670;2023-02-28T07:32:10;102994.94;;;9.65;56.95
69624;BME280;56843;52.020;5.670;2023-02-28T07:33:40;102996.53;;;9.66;56.98
69624;BME280;56843;52.020;5.670;2023-02-28T07:35:11;103000.81;;;9.67;56.79
69624;BME280;56843;52.020;5.670;2023-02-28T07:36:42;103002.94;;;9.65;56.72
69624;BME280;56843;52.020;5.670;2023-02-28T07:38:12;103011.50;;;9.67;56.82
69624;BME280;56843;52.020;5.670;2023-02-28T07:39:43;103014.44;;;9.65;56.62
69624;BME280;56843;52.020;5.670;2023-02-28T07:41:15;103007.19;;;9.66;56.59
69624;BME280;56843;52.020;5.670;2023-02-28T07:42:46;103008.81;;;9.67;57.01
69624;BME280;56843;52.020;5.670;2023-02-28T07:44:20;103003.50;;;9.67;56.54
69624;BME280;56843;52.020;5.670;2023-02-28T07:45:51;103009.63;;;9.67;56.63
69624;BME280;56843;52.020;5.670;2023-02-28T07:47:22;103004.28;;;9.67;56.70
69624;BME280;56843;52.020;5.670;2023-02-28T07:48:52;103005.06;;;9.68;56.37
69624;BME280;56843;52.020;5.670;2023-02-28T07:50:24;103004.03;;;9.69;56.59
69624;BME280;56843;52.020;5.670;2023-02-28T07:51:55;103003.50;;;9.67;56.46
69624;BME280;56843;52.020;5.670;2023-02-28T07:53:26;103005.06;;;9.68;56.34
69624;BME280;56843;52.020;5.670;2023-02-28T07:54:57;103005.63;;;9.70;56.41
69624;BME280;56843;52.020;5.670;2023-02-28T07:56:27;103005.63;;;9.70;56.36
69624;BME280;56843;52.020;5.670;2023-02-28T07:57:58;103016.31;;;9.75;56.31
69624;BME280;56843;52.020;5.670;2023-02-28T07:59:28;103009.09;;;9.75;56.33
69624;BME280;56843;52.020;5.670;2023-02-28T08:01:09;103013.66;;;9.80;56.12
69624;BME280;56843;52.020;5.670;2023-02-28T08:02:40;103010.47;;;9.78;56.19
69624;BME280;56843;52.020;5.670;2023-02-28T08:04:11;103012.56;;;9.81;55.99
69624;BME280;56843;52.020;5.670;2023-02-28T08:05:41;103019.25;;;9.83;55.87
69624;BME280;56843;52.020;5.670;2023-02-28T08:07:13;103011.25;;;9.83;55.89
69624;BME280;56843;52.020;5.670;2023-02-28T08:08:43;103013.41;;;9.86;55.74
69624;BME280;56843;52.020;5.670;2023-02-28T08:10:15;103024.63;;;9.88;55.61
69624;BME280;56843;52.020;5.670;2023-02-28T08:11:45;103008.88;;;9.87;55.58
69624;BME280;56843;52.020;5.670;2023-02-28T08:13:15;103037.44;;;9.91;55.35
69624;BME280;56843;52.020;5.670;2023-02-28T08:14:46;103015.81;;;9.93;55.40
69624;BME280;56843;52.020;5.670;2023-02-28T08:16:16;103022.50;;;9.95;55.40
69624;BME280;56843;52.020;5.670;2023-02-28T08:17:52;103024.09;;;9.96;55.30
69624;BME280;56843;52.020;5.670;2023-02-28T08:19:22;103029.19;;;9.98;55.15
69624;BME280;56843;52.020;5.670;2023-02-28T08:20:53;103020.91;;;9.99;55.08
69624;BME280;56843;52.020;5.670;2023-02-28T08:22:23;103030.25;;;10.02;54.88
69624;BME280;56843;52.020;5.670;2023-02-28T08:23:54;103019.59;;;10.02;54.71
69624;BME280;56843;52.020;5.670;2023-02-28T08:25:24;103017.44;;;10.04;54.72
69624;BME280;56843;52.020;5.670;2023-02-28T08:26:55;103000.63;;;10.03;54.75
69624;BME280;56843;52.020;5.670;2023-02-28T08:28:25;103001.44;;;10.04;54.53
69624;BME280;56843;52.020;5.670;2023-02-28T08:29:56;103011.59;;;10.07;54.66
69624;BME280;56843;52.020;5.670;2023-02-28T08:31:26;103018.50;;;10.08;54.50
69624;BME280;56843;52.020;5.670;2023-02-28T08:32:57;103007.84;;;10.08;54.27
69624;BME280;56843;52.020;5.670;2023-02-28T08:34:28;103014.78;;;10.09;54.23
69624;BME280;56843;52.020;5.670;2023-02-28T08:35:58;103018.25;;;10.09;54.21
69624;BME280;56843;52.020;5.670;2023-02-28T08:37:29;103014.25;;;10.12;54.06
69624;BME280;56843;52.020;5.670;2023-02-28T08:38:59;103017.44;;;10.14;53.87
69624;BME280;56843;52.020;5.670;2023-02-28T08:40:30;103013.72;;;10.15;53.70